Time;durP1;ratioP1;P1;durP2;ratioP2;P2;SDS_P1;SDS_P2;PMS_P1;PMS_P2;Temp;Humidity;BMP_temperature;BMP_pressure;BME280_temperature;BME280_humidity;BME280_pressure;Samples;Min_cycle;Max_cycle;Signal;HPM_P1;HPM_P2
2023/03/05 00:04:59;;;;;;;8.15;5.13;;;;;;;21.13;37.06;101166.19;21089408;28;20082;-65
2023/03/05 00:15:00;;;;;;;9.48;5.05;;;;;;;21.16;37.11;101197.06;21091050;28;20048;-66
2023/03/05 00:25:03;;;;;;;8.90;4.63;;;;;;;21.19;37.22;101237.44;21091313;28;20074;-64
2023/03/05 00:35:05;;;;;;;9.50;4.78;;;;;;;21.17;36.92;101251.63;21088990;28;20032;-65
2023/03/05 00:45:08;;;;;;;7.28;3.72;;;;;;;21.28;37.17;101291.44;21085281;28;20044;-66
2023/03/05 00:55:09;;;;;;;8.25;3.40;;;;;;;21.29;37.23;101310.63;21086123;28;20081;-68
2023/03/05 01:05:13;;;;;;;8.25;3.35;;;;;;;21.35;37.04;101352.44;21084820;28;20036;-68
2023/03/05 01:15:14;;;;;;;7.75;3.03;;;;;;;21.35;37.41;101366.34;21002125;28;20049;-66
2023/03/05 01:25:16;;;;;;;6.32;3.00;;;;;;;21.36;37.21;101409.81;21002035;28;20150;-67
2023/03/05 01:35:20;;;;;;;5.93;3.17;;;;;;;21.22;37.02;101424.19;21001088;28;20040;-67
2023/03/05 01:45:25;;;;;;;8.20;2.67;;;;;;;21.39;36.66;101470.50;21000508;28;20052;-66
2023/03/05 01:55:29;;;;;;;5.35;2.78;;;;;;;21.41;37.00;101504.47;20999454;28;20029;-66
2023/03/05 02:05:33;;;;;;;5.30;2.10;;;;;;;21.33;36.73;101514.19;20998567;28;20055;-67
2023/03/05 02:15:36;;;;;;;4.35;2.08;;;;;;;21.40;36.62;101545.41;20997824;28;20037;-67
2023/03/05 02:25:38;;;;;;;3.72;2.25;;;;;;;21.39;36.67;101565.97;20996073;28;20052;-67
2023/03/05 02:35:43;;;;;;;4.40;2.38;;;;;;;21.40;36.69;101564.91;20996270;28;20094;-67
2023/03/05 02:45:44;;;;;;;4.50;2.42;;;;;;;21.36;36.49;101574.91;20995670;28;20546;-67
2023/03/05 02:55:47;;;;;;;3.50;2.00;;;;;;;21.29;36.32;101583.44;20994731;28;20048;-68
2023/03/05 03:05:48;;;;;;;3.08;1.95;;;;;;;21.37;36.65;101606.34;20994073;28;20029;-68
2023/03/05 03:15:50;;;;;;;2.28;1.60;;;;;;;21.33;36.68;101619.13;20994093;28;20045;-69
2023/03/05 03:26:03;;;;;;;2.72;1.70;;;;;;;21.28;36.55;101626.31;20993386;28;20476;-67
2023/03/05 03:36:06;;;;;;;2.45;1.38;;;;;;;21.28;36.29;101623.53;20992314;28;20094;-66
2023/03/05 03:46:07;;;;;;;3.05;1.60;;;;;;;21.27;36.51;101638.56;20991787;28;20480;-67
2023/03/05 03:56:08;;;;;;;1.40;1.10;;;;;;;21.27;36.17;101632.97;20991860;28;20396;-67
2023/03/05 04:06:10;;;;;;;2.28;1.42;;;;;;;21.24;36.34;101636.28;21035611;28;20040;-68
2023/03/05 04:16:12;;;;;;;3.55;1.40;;;;;;;21.24;36.08;101644.63;21041224;28;20048;-69
2023/03/05 04:26:14;;;;;;;3.72;1.30;;;;;;;21.24;36.35;101669.69;21072748;28;20449;-67
2023/03/05 04:36:15;;;;;;;2.92;1.38;;;;;;;21.14;36.36;101652.91;21072187;28;20388;-67
2023/03/05 04:46:16;;;;;;;3.08;1.33;;;;;;;21.22;36.34;101646.03;21077986;28;20040;-67
2023/03/05 04:56:18;;;;;;;1.85;1.20;;;;;;;21.21;36.20;101649.91;21087455;28;20094;-67
2023/03/05 05:06:19;;;;;;;3.70;1.40;;;;;;;21.18;36.51;101654.06;21087401;28;20036;-67
2023/03/05 05:16:23;;;;;;;2.33;1.13;;;;;;;21.17;36.04;101641.25;21080014;28;20081;-67
2023/03/05 05:26:25;;;;;;;4.50;1.50;;;;;;;21.13;36.01;101628.97;21080309;28;20040;-67
2023/03/05 05:36:29;;;;;;;1.13;0.90;;;;;;;21.09;36.19;101610.28;21084278;28;20048;-66
2023/03/05 05:46:39;;;;;;;2.47;1.35;;;;;;;21.05;36.34;101624.72;21083990;28;20098;-67
2023/03/05 05:56:40;;;;;;;4.43;1.30;;;;;;;21.11;36.25;101692.41;21083384;28;20037;-67
2023/03/05 06:06:42;;;;;;;1.40;0.85;;;;;;;21.10;36.24;101709.38;21082563;28;20036;-67
2023/03/05 06:16:43;;;;;;;1.92;1.05;;;;;;;21.07;36.27;101752.47;21081128;28;20043;-66
2023/03/05 06:26:48;;;;;;;1.52;1.08;;;;;;;21.05;36.40;101791.69;21081174;28;20052;-68
2023/03/05 06:36:50;;;;;;;3.97;1.45;;;;;;;21.03;36.65;101777.22;21080009;28;20028;-68
2023/03/05 06:46:54;;;;;;;1.58;0.82;;;;;;;21.03;36.54;101782.78;21079381;28;20472;-67
2023/03/05 06:56:55;;;;;;;2.80;1.30;;;;;;;21.02;36.36;101775.50;21078835;28;20146;-67
2023/03/05 07:06:58;;;;;;;1.58;1.30;;;;;;;21.01;36.55;101770.22;21077433;28;20097;-67
2023/03/05 07:16:59;;;;;;;1.52;1.05;;;;;;;20.93;36.68;101751.19;21060495;28;20180;-66
2023/03/05 07:27:00;;;;;;;1.63;1.10;;;;;;;20.96;36.63;101761.81;20998261;28;20090;-67
2023/03/05 07:37:04;;;;;;;1.30;1.02;;;;;;;20.95;36.56;101762.94;21070802;28;20450;-66
2023/03/05 07:47:06;;;;;;;2.15;1.20;;;;;;;20.92;36.71;101777.34;20992267;28;20048;-67
2023/03/05 07:57:09;;;;;;;2.40;1.10;;;;;;;20.88;36.58;101777.03;20991379;28;20045;-68
2023/03/05 08:07:13;;;;;;;1.25;0.98;;;;;;;20.87;36.24;101785.63;20991729;28;20037;-68
2023/03/05 08:17:15;;;;;;;1.23;1.00;;;;;;;20.84;36.49;101794.50;20991025;28;20024;-67
2023/03/05 08:27:16;;;;;;;1.42;0.90;;;;;;;20.81;36.23;101805.06;21087618;28;20048;-68
2023/03/05 08:37:20;;;;;;;1.23;0.90;;;;;;;20.78;35.91;101808.34;21089688;28;20113;-68
2023/03/05 08:47:24;;;;;;;1.42;1.10;;;;;;;20.75;35.98;101822.75;21088343;28;20028;-66
2023/03/05 08:57:25;;;;;;;1.60;0.93;;;;;;;20.70;36.29;101819.91;21082243;28;20048;-68
2023/03/05 09:07:26;;;;;;;1.25;1.10;;;;;;;20.65;35.95;101830.13;21085824;28;20450;-67
2023/03/05 09:17:28;;;;;;;1.65;1.00;;;;;;;20.64;35.88;101859.91;21003556;28;20049;-67
2023/03/05 09:27:33;;;;;;;1.17;0.90;;;;;;;20.60;35.98;101858.72;21001456;28;20036;-67
2023/03/05 09:37:34;;;;;;;0.95;0.85;;;;;;;20.57;35.87;101859.22;21001126;28;20032;-67
2023/03/05 09:47:47;;;;;;;1.20;1.10;;;;;;;20.52;35.96;101868.34;21003477;28;20102;-67
2023/03/05 09:57:54;;;;;;;1.40;1.13;;;;;;;20.50;35.92;101869.72;20999965;28;20040;-67
2023/03/05 10:08:02;;;;;;;1.48;1.00;;;;;;;20.01;35.90;101811.94;20998778;28;20041;-67
2023/03/05 10:18:17;;;;;;;1.40;1.00;;;;;;;20.45;35.93;101894.63;20996735;28;20041;-67
2023/03/05 10:28:27;;;;;;;1.23;1.10;;;;;;;20.41;35.66;101901.78;21043516;28;20036;-67
2023/03/05 10:38:43;;;;;;;1.20;1.10;;;;;;;20.41;35.68;101894.28;21074211;28;20044;-66
2023/03/05 10:48:52;;;;;;;1.23;1.00;;;;;;;20.39;35.64;101906.75;21078540;28;20081;-68
2023/03/05 10:58:53;;;;;;;;;;;;;;;20.36;36.06;101918.38;21075590;28;20052;-67
2023/03/05 11:09:13;;;;;;;1.52;1.10;;;;;;;20.41;35.47;101927.66;21078317;28;19959;-67
2023/03/05 11:19:28;;;;;;;2.17;0.95;;;;;;;20.35;35.45;101938.94;21077428;28;20040;-68
2023/03/05 11:29:35;;;;;;;1.10;1.00;;;;;;;20.30;35.60;101948.88;21077536;28;20047;-66
2023/03/05 11:39:40;;;;;;;1.00;0.90;;;;;;;20.27;35.37;101942.97;21070280;28;20125;-67
2023/03/05 11:49:45;;;;;;;1.13;0.98;;;;;;;19.82;35.69;101862.47;21069804;28;20086;-68
2023/03/05 11:59:48;;;;;;;1.10;1.00;;;;;;;20.20;35.48;101993.16;21087847;28;20093;-66
2023/03/05 12:09:53;;;;;;;0.80;0.80;;;;;;;20.18;35.77;102011.19;21091751;28;20229;-66
2023/03/05 12:19:59;;;;;;;1.65;1.20;;;;;;;20.14;35.52;101999.72;21091080;28;20372;-68
2023/03/05 12:30:02;;;;;;;1.42;1.10;;;;;;;20.00;35.44;101981.69;21090327;28;20036;-66
2023/03/05 12:40:07;;;;;;;1.33;1.20;;;;;;;20.05;35.64;102015.13;21089254;28;20102;-66
2023/03/05 12:50:26;;;;;;;1.52;1.08;;;;;;;19.96;35.77;102008.28;21088527;28;20040;-68
2023/03/05 13:00:37;;;;;;;1.15;0.93;;;;;;;19.96;35.78;102019.38;21088068;28;20047;-67
2023/03/05 13:10:39;;;;;;;1.08;0.98;;;;;;;19.95;35.74;102026.03;21086448;28;20039;-68
2023/03/05 13:20:41;;;;;;;1.10;1.00;;;;;;;19.93;35.50;102042.09;21086626;28;20044;-68
2023/03/05 13:30:56;;;;;;;1.00;0.90;;;;;;;19.90;35.76;102032.34;21085388;28;20097;-66
2023/03/05 13:41:15;;;;;;;1.08;0.98;;;;;;;19.88;35.60;102025.34;21084821;28;20092;-68
2023/03/05 13:51:16;;;;;;;1.10;1.00;;;;;;;19.86;36.06;102028.38;21083929;28;20070;-67
2023/03/05 14:01:45;;;;;;;0.93;0.93;;;;;;;19.79;36.22;102017.44;21081899;28;20051;-67
2023/03/05 14:12:18;;;;;;;1.10;1.00;;;;;;;19.80;36.09;102024.66;21082033;28;20433;-68
2023/03/05 14:22:34;;;;;;;1.10;1.08;;;;;;;19.70;36.08;102010.56;21080321;28;20067;-67
2023/03/05 14:32:36;;;;;;;0.90;0.90;;;;;;;19.77;35.69;102024.31;21080570;28;20058;-67
2023/03/05 14:42:40;;;;;;;1.00;0.90;;;;;;;19.83;36.01;102033.56;21079886;28;20101;-68
2023/03/05 14:52:42;;;;;;;0.98;0.90;;;;;;;19.83;36.04;102033.56;21079620;28;20031;-67
2023/03/05 15:02:56;;;;;;;1.10;1.00;;;;;;;19.79;36.10;102019.31;21078098;28;20545;-67
2023/03/05 15:13:01;;;;;;;0.98;0.90;;;;;;;19.83;35.67;102003.03;21077844;28;20047;-68
2023/03/05 15:23:11;;;;;;;1.00;1.00;;;;;;;19.64;35.69;101972.66;21077351;28;20048;-68
2023/03/05 15:33:22;;;;;;;0.90;0.90;;;;;;;19.79;35.73;101986.88;21076024;28;20441;-67
2023/03/05 15:43:27;;;;;;;0.73;0.73;;;;;;;19.82;35.81;101973.56;21075890;28;20417;-67
2023/03/05 15:53:28;;;;;;;0.88;0.88;;;;;;;19.77;35.83;101964.03;21069633;28;20043;-66
2023/03/05 16:03:30;;;;;;;1.20;1.10;;;;;;;19.80;35.98;101965.50;21075171;28;20036;-68
2023/03/05 16:13:34;;;;;;;0.85;0.85;;;;;;;19.78;36.06;101951.84;21073719;28;20036;-67
2023/03/05 16:23:38;;;;;;;1.00;1.00;;;;;;;19.82;35.93;101945.78;21074955;28;20044;-67
2023/03/05 16:33:42;;;;;;;1.10;1.00;;;;;;;19.75;35.81;101929.28;21074413;28;20047;-68
2023/03/05 16:43:44;;;;;;;1.30;1.20;;;;;;;19.83;35.97;101930.81;21081941;28;20035;-66
2023/03/05 16:53:45;;;;;;;0.98;0.90;;;;;;;19.80;35.77;101905.22;21083172;28;20036;-67
2023/03/05 17:03:47;;;;;;;1.23;1.13;;;;;;;19.77;35.90;101889.06;21087822;28;20106;-67
2023/03/05 17:13:48;;;;;;;1.10;1.00;;;;;;;19.80;36.05;101882.16;21085561;28;20395;-68
2023/03/05 17:23:50;;;;;;;0.80;0.80;;;;;;;19.60;35.86;101827.09;21086013;28;20040;-67
2023/03/05 17:33:54;;;;;;;0.82;0.82;;;;;;;19.73;35.86;101832.31;21085351;28;20048;-68
2023/03/05 17:44:01;;;;;;;0.82;0.82;;;;;;;19.74;35.97;101822.91;21084676;28;20040;-67
2023/03/05 17:54:03;;;;;;;1.10;1.00;;;;;;;19.80;35.88;101821.06;21083634;28;20036;-67
2023/03/05 18:04:05;;;;;;;1.10;0.75;;;;;;;19.83;36.02;101828.03;21082821;28;20040;-66
2023/03/05 18:14:06;;;;;;;1.25;0.90;;;;;;;19.83;36.11;101822.47;21081965;28;20033;-69
2023/03/05 18:24:08;;;;;;;1.17;1.02;;;;;;;19.70;35.99;101795.88;21081269;28;20051;-68
2023/03/05 18:34:10;;;;;;;1.27;1.00;;;;;;;19.82;36.18;101826.34;21080876;28;20487;-68
2023/03/05 18:44:12;;;;;;;0.90;0.85;;;;;;;19.83;35.92;101836.38;21079913;28;20040;-69
2023/03/05 18:54:13;;;;;;;1.90;1.05;;;;;;;19.82;35.87;101835.53;21079182;28;20036;-68
2023/03/05 19:04:15;;;;;;;1.17;1.08;;;;;;;19.83;36.34;101830.81;21078046;28;20105;-69
2023/03/05 19:14:17;;;;;;;1.00;0.90;;;;;;;19.82;36.26;101829.97;21078102;28;20074;-68
2023/03/05 19:24:23;;;;;;;0.98;0.95;;;;;;;19.76;36.08;101817.94;21077322;28;20344;-67
2023/03/05 19:34:24;;;;;;;1.13;1.05;;;;;;;19.83;36.09;101839.16;21077007;28;20093;-67
2023/03/05 19:44:26;;;;;;;0.90;0.88;;;;;;;19.78;36.17;101835.19;21076011;28;20051;-68
2023/03/05 19:54:31;;;;;;;1.48;0.98;;;;;;;19.82;36.23;101843.03;21074128;28;20487;-67
2023/03/05 20:04:32;;;;;;;0.85;0.85;;;;;;;19.84;36.27;101844.47;20993870;28;20109;-67
2023/03/05 20:14:33;;;;;;;1.00;1.00;;;;;;;19.84;36.10;101869.47;21069224;28;20040;-67
2023/03/05 20:24:36;;;;;;;1.08;1.00;;;;;;;19.85;35.91;101861.97;21090126;28;20394;-66
2023/03/05 20:34:37;;;;;;;1.13;1.02;;;;;;;19.86;36.19;101874.75;21090708;28;20444;-67
2023/03/05 20:44:41;;;;;;;1.10;1.00;;;;;;;19.85;36.07;101878.63;21089643;28;20089;-69
2023/03/05 20:54:46;;;;;;;1.10;1.00;;;;;;;19.78;35.91;101870.44;21089275;28;20044;-67
2023/03/05 21:04:47;;;;;;;1.20;1.10;;;;;;;19.80;36.01;101882.16;21088536;28;20047;-66
2023/03/05 21:14:49;;;;;;;1.10;1.00;;;;;;;19.79;36.40;101881.31;21086170;28;20109;-67
2023/03/05 21:25:21;;;;;;;1.15;1.02;;;;;;;19.70;36.33;101882.84;21086034;28;20040;-66
2023/03/05 21:35:22;;;;;;;1.02;0.93;;;;;;;19.80;36.13;101902.44;21085153;28;20043;-67
2023/03/05 21:45:25;;;;;;;1.20;1.10;;;;;;;19.62;36.15;101883.22;21084970;28;20043;-68
2023/03/05 21:56:24;;;;;;;1.30;1.17;;;;;;;19.74;36.31;101925.66;21084492;28;20036;-68
2023/03/05 22:06:26;;;;;;;1.20;1.10;;;;;;;19.74;36.25;101922.88;21073342;28;20036;-67
2023/03/05 22:16:28;;;;;;;1.40;1.30;;;;;;;19.69;36.08;101920.00;21082869;28;20113;-68
2023/03/05 22:26:35;;;;;;;1.33;1.23;;;;;;;19.79;36.02;101956.31;21081756;28;20562;-69
2023/03/05 22:36:36;;;;;;;1.00;0.98;;;;;;;19.82;36.27;101971.63;21080386;28;20105;-67
2023/03/05 22:46:38;;;;;;;1.08;0.90;;;;;;;19.77;36.11;101982.63;21079509;28;20044;-67
2023/03/05 22:56:42;;;;;;;1.45;1.08;;;;;;;19.72;36.06;101996.44;21079553;28;20105;-68
2023/03/05 23:06:47;;;;;;;0.90;0.90;;;;;;;19.80;36.34;102038.53;21078202;28;20513;-67
2023/03/05 23:16:48;;;;;;;1.33;1.20;;;;;;;19.80;36.25;102055.22;21077318;28;20395;-67
2023/03/05 23:26:49;;;;;;;1.45;1.33;;;;;;;19.71;36.18;102058.63;21077403;28;20066;-67
2023/03/05 23:36:52;;;;;;;1.20;1.10;;;;;;;19.80;36.01;102093.25;21076745;28;20051;-67
2023/03/05 23:46:53;;;;;;;0.90;0.90;;;;;;;19.79;36.14;102105.44;21076111;28;20040;-67
2023/03/05 23:56:54;;;;;;;1.92;0.90;;;;;;;19.74;36.07;102100.59;21101316;28;20044;-67
